sensor_id;sensor_type;location;lat;lon;timestamp;P1;durP1;ratioP1;P2;durP2;ratioP2
23394;SDS011;11870;53.084;18.206;2023-03-05T00:02:22;12.70;;;4.28;;
23394;SDS011;11870;53.084;18.206;2023-03-05T00:04:48;9.68;;;3.42;;
23394;SDS011;11870;53.084;18.206;2023-03-05T00:07:14;9.73;;;3.92;;
23394;SDS011;11870;53.084;18.206;2023-03-05T00:09:40;11.02;;;3.85;;
23394;SDS011;11870;53.084;18.206;2023-03-05T00:12:06;8.15;;;3.03;;
23394;SDS011;11870;53.084;18.206;2023-03-05T00:14:32;12.45;;;3.65;;
23394;SDS011;11870;53.084;18.206;2023-03-05T00:16:59;9.23;;;3.40;;
23394;SDS011;11870;53.084;18.206;2023-03-05T00:19:24;12.10;;;4.20;;
23394;SDS011;11870;53.084;18.206;2023-03-05T00:21:50;10.80;;;3.28;;
23394;SDS011;11870;53.084;18.206;2023-03-05T00:24:16;11.52;;;3.53;;
23394;SDS011;11870;53.084;18.206;2023-03-05T00:26:43;10.70;;;3.05;;
23394;SDS011;11870;53.084;18.206;2023-03-05T00:29:10;8.60;;;3.50;;
23394;SDS011;11870;53.084;18.206;2023-03-05T00:31:40;11.40;;;3.33;;
23394;SDS011;11870;53.084;18.206;2023-03-05T00:34:07;9.40;;;3.53;;
23394;SDS011;11870;53.084;18.206;2023-03-05T00:36:38;16.23;;;4.13;;
23394;SDS011;11870;53.084;18.206;2023-03-05T00:39:05;10.32;;;3.72;;
23394;SDS011;11870;53.084;18.206;2023-03-05T00:41:31;10.27;;;4.00;;
23394;SDS011;11870;53.084;18.206;2023-03-05T00:43:57;15.52;;;3.92;;
23394;SDS011;11870;53.084;18.206;2023-03-05T00:46:23;10.48;;;3.70;;
23394;SDS011;11870;53.084;18.206;2023-03-05T00:48:51;12.05;;;4.28;;
23394;SDS011;11870;53.084;18.206;2023-03-05T00:51:19;12.55;;;4.38;;
23394;SDS011;11870;53.084;18.206;2023-03-05T00:53:45;10.77;;;3.42;;
23394;SDS011;11870;53.084;18.206;2023-03-05T00:56:11;9.50;;;3.33;;
23394;SDS011;11870;53.084;18.206;2023-03-05T00:58:37;12.43;;;4.07;;
23394;SDS011;11870;53.084;18.206;2023-03-05T01:01:03;11.35;;;4.10;;
23394;SDS011;11870;53.084;18.206;2023-03-05T01:03:32;7.63;;;3.40;;
23394;SDS011;11870;53.084;18.206;2023-03-05T01:05:59;11.55;;;3.85;;
23394;SDS011;11870;53.084;18.206;2023-03-05T01:08:27;13.43;;;3.88;;
23394;SDS011;11870;53.084;18.206;2023-03-05T01:10:53;10.82;;;3.05;;
23394;SDS011;11870;53.084;18.206;2023-03-05T01:13:19;9.48;;;3.47;;
23394;SDS011;11870;53.084;18.206;2023-03-05T01:15:45;9.10;;;3.50;;
23394;SDS011;11870;53.084;18.206;2023-03-05T01:18:12;12.52;;;3.30;;
23394;SDS011;11870;53.084;18.206;2023-03-05T01:20:39;9.20;;;3.83;;
23394;SDS011;11870;53.084;18.206;2023-03-05T01:23:04;11.32;;;3.30;;
23394;SDS011;11870;53.084;18.206;2023-03-05T01:25:30;9.20;;;3.47;;
23394;SDS011;11870;53.084;18.206;2023-03-05T01:27:56;13.35;;;3.63;;
23394;SDS011;11870;53.084;18.206;2023-03-05T01:30:22;11.30;;;3.28;;
23394;SDS011;11870;53.084;18.206;2023-03-05T01:32:48;10.68;;;3.17;;
23394;SDS011;11870;53.084;18.206;2023-03-05T01:35:15;11.60;;;3.08;;
23394;SDS011;11870;53.084;18.206;2023-03-05T01:37:43;6.93;;;2.70;;
23394;SDS011;11870;53.084;18.206;2023-03-05T01:40:10;8.23;;;2.80;;
23394;SDS011;11870;53.084;18.206;2023-03-05T01:42:38;10.57;;;3.72;;
23394;SDS011;11870;53.084;18.206;2023-03-05T01:47:34;8.40;;;2.75;;
23394;SDS011;11870;53.084;18.206;2023-03-05T01:50:00;10.15;;;2.75;;
23394;SDS011;11870;53.084;18.206;2023-03-05T01:52:26;7.45;;;2.97;;
23394;SDS011;11870;53.084;18.206;2023-03-05T01:54:56;9.50;;;3.05;;
23394;SDS011;11870;53.084;18.206;2023-03-05T01:57:39;8.32;;;2.63;;
23394;SDS011;11870;53.084;18.206;2023-03-05T02:00:16;9.48;;;3.00;;
23394;SDS011;11870;53.084;18.206;2023-03-05T02:02:46;9.27;;;2.65;;
23394;SDS011;11870;53.084;18.206;2023-03-05T02:05:19;6.93;;;3.08;;
23394;SDS011;11870;53.084;18.206;2023-03-05T02:07:54;7.63;;;2.65;;
23394;SDS011;11870;53.084;18.206;2023-03-05T02:10:22;7.43;;;2.90;;
23394;SDS011;11870;53.084;18.206;2023-03-05T02:12:50;5.60;;;2.65;;
23394;SDS011;11870;53.084;18.206;2023-03-05T02:15:18;6.55;;;2.33;;
23394;SDS011;11870;53.084;18.206;2023-03-05T02:17:44;9.43;;;2.90;;
23394;SDS011;11870;53.084;18.206;2023-03-05T02:20:21;5.47;;;2.58;;
23394;SDS011;11870;53.084;18.206;2023-03-05T02:22:51;5.50;;;2.33;;
23394;SDS011;11870;53.084;18.206;2023-03-05T02:25:18;8.20;;;2.72;;
23394;SDS011;11870;53.084;18.206;2023-03-05T02:27:56;4.97;;;2.22;;
23394;SDS011;11870;53.084;18.206;2023-03-05T02:30:25;7.25;;;2.45;;
23394;SDS011;11870;53.084;18.206;2023-03-05T02:32:52;11.00;;;2.97;;
23394;SDS011;11870;53.084;18.206;2023-03-05T02:35:18;7.00;;;2.20;;
23394;SDS011;11870;53.084;18.206;2023-03-05T02:37:44;7.68;;;2.30;;
23394;SDS011;11870;53.084;18.206;2023-03-05T02:40:10;8.40;;;2.80;;
23394;SDS011;11870;53.084;18.206;2023-03-05T02:42:37;7.32;;;2.42;;
23394;SDS011;11870;53.084;18.206;2023-03-05T02:45:03;6.22;;;2.80;;
23394;SDS011;11870;53.084;18.206;2023-03-05T02:47:30;7.30;;;2.17;;
23394;SDS011;11870;53.084;18.206;2023-03-05T02:49:56;7.22;;;2.10;;
23394;SDS011;11870;53.084;18.206;2023-03-05T02:52:23;6.65;;;2.35;;
23394;SDS011;11870;53.084;18.206;2023-03-05T02:54:50;7.40;;;2.65;;
23394;SDS011;11870;53.084;18.206;2023-03-05T02:57:17;6.82;;;2.10;;
23394;SDS011;11870;53.084;18.206;2023-03-05T02:59:44;6.65;;;2.20;;
23394;SDS011;11870;53.084;18.206;2023-03-05T03:02:10;7.05;;;2.20;;
23394;SDS011;11870;53.084;18.206;2023-03-05T03:04:37;5.65;;;1.95;;
23394;SDS011;11870;53.084;18.206;2023-03-05T03:07:03;6.25;;;2.35;;
23394;SDS011;11870;53.084;18.206;2023-03-05T03:09:29;5.72;;;2.30;;
23394;SDS011;11870;53.084;18.206;2023-03-05T03:11:55;6.30;;;2.20;;
23394;SDS011;11870;53.084;18.206;2023-03-05T03:14:21;5.88;;;2.22;;
23394;SDS011;11870;53.084;18.206;2023-03-05T03:16:47;7.10;;;2.58;;
23394;SDS011;11870;53.084;18.206;2023-03-05T03:19:13;7.25;;;2.33;;
23394;SDS011;11870;53.084;18.206;2023-03-05T03:21:39;9.60;;;2.22;;
23394;SDS011;11870;53.084;18.206;2023-03-05T03:24:05;7.00;;;2.33;;
23394;SDS011;11870;53.084;18.206;2023-03-05T03:26:31;7.75;;;2.28;;
23394;SDS011;11870;53.084;18.206;2023-03-05T03:28:57;7.10;;;2.22;;
23394;SDS011;11870;53.084;18.206;2023-03-05T03:31:23;5.85;;;2.10;;
23394;SDS011;11870;53.084;18.206;2023-03-05T03:33:49;10.30;;;2.33;;
23394;SDS011;11870;53.084;18.206;2023-03-05T03:36:15;6.90;;;2.30;;
23394;SDS011;11870;53.084;18.206;2023-03-05T03:38:41;5.53;;;2.30;;
23394;SDS011;11870;53.084;18.206;2023-03-05T03:41:07;7.70;;;2.50;;
23394;SDS011;11870;53.084;18.206;2023-03-05T03:43:34;9.10;;;2.42;;
23394;SDS011;11870;53.084;18.206;2023-03-05T03:46:02;7.28;;;2.40;;
23394;SDS011;11870;53.084;18.206;2023-03-05T03:48:31;5.63;;;2.42;;
23394;SDS011;11870;53.084;18.206;2023-03-05T03:50:56;5.43;;;2.00;;
23394;SDS011;11870;53.084;18.206;2023-03-05T03:53:22;7.05;;;2.47;;
23394;SDS011;11870;53.084;18.206;2023-03-05T03:55:48;5.70;;;2.20;;
23394;SDS011;11870;53.084;18.206;2023-03-05T03:58:14;4.30;;;2.10;;
23394;SDS011;11870;53.084;18.206;2023-03-05T04:00:40;6.40;;;2.78;;
23394;SDS011;11870;53.084;18.206;2023-03-05T04:03:06;6.90;;;2.65;;
23394;SDS011;11870;53.084;18.206;2023-03-05T04:05:32;4.53;;;2.10;;
23394;SDS011;11870;53.084;18.206;2023-03-05T04:07:59;4.82;;;2.42;;
23394;SDS011;11870;53.084;18.206;2023-03-05T04:10:25;6.47;;;2.05;;
23394;SDS011;11870;53.084;18.206;2023-03-05T04:12:52;7.78;;;2.63;;
23394;SDS011;11870;53.084;18.206;2023-03-05T04:15:18;6.50;;;2.22;;
23394;SDS011;11870;53.084;18.206;2023-03-05T04:17:44;7.75;;;2.33;;
23394;SDS011;11870;53.084;18.206;2023-03-05T04:20:10;6.10;;;2.53;;
23394;SDS011;11870;53.084;18.206;2023-03-05T04:22:36;5.63;;;2.28;;
23394;SDS011;11870;53.084;18.206;2023-03-05T04:25:03;8.50;;;2.40;;
23394;SDS011;11870;53.084;18.206;2023-03-05T04:27:31;6.20;;;2.08;;
23394;SDS011;11870;53.084;18.206;2023-03-05T04:29:58;6.35;;;2.22;;
23394;SDS011;11870;53.084;18.206;2023-03-05T04:32:25;7.85;;;2.38;;
23394;SDS011;11870;53.084;18.206;2023-03-05T04:34:54;5.68;;;2.00;;
23394;SDS011;11870;53.084;18.206;2023-03-05T04:37:21;5.60;;;2.22;;
23394;SDS011;11870;53.084;18.206;2023-03-05T04:39:47;6.10;;;2.15;;
23394;SDS011;11870;53.084;18.206;2023-03-05T04:42:13;4.68;;;2.47;;
23394;SDS011;11870;53.084;18.206;2023-03-05T04:44:39;7.60;;;2.15;;
23394;SDS011;11870;53.084;18.206;2023-03-05T04:47:05;6.60;;;2.40;;
23394;SDS011;11870;53.084;18.206;2023-03-05T04:49:31;6.18;;;2.60;;
23394;SDS011;11870;53.084;18.206;2023-03-05T04:51:57;7.13;;;2.17;;
23394;SDS011;11870;53.084;18.206;2023-03-05T04:54:23;10.25;;;2.50;;
23394;SDS011;11870;53.084;18.206;2023-03-05T04:56:49;7.57;;;2.55;;
23394;SDS011;11870;53.084;18.206;2023-03-05T04:59:15;6.35;;;2.28;;
23394;SDS011;11870;53.084;18.206;2023-03-05T05:01:41;3.97;;;1.90;;
23394;SDS011;11870;53.084;18.206;2023-03-05T05:04:07;9.48;;;2.40;;
23394;SDS011;11870;53.084;18.206;2023-03-05T05:06:33;8.60;;;2.10;;
23394;SDS011;11870;53.084;18.206;2023-03-05T05:08:59;8.30;;;2.42;;
23394;SDS011;11870;53.084;18.206;2023-03-05T05:11:25;5.38;;;2.35;;
23394;SDS011;11870;53.084;18.206;2023-03-05T05:13:51;6.00;;;2.83;;
23394;SDS011;11870;53.084;18.206;2023-03-05T05:16:17;6.80;;;2.72;;
23394;SDS011;11870;53.084;18.206;2023-03-05T05:18:43;8.80;;;2.80;;
23394;SDS011;11870;53.084;18.206;2023-03-05T05:21:10;5.95;;;2.50;;
23394;SDS011;11870;53.084;18.206;2023-03-05T05:23:37;5.63;;;2.53;;
23394;SDS011;11870;53.084;18.206;2023-03-05T05:26:04;7.20;;;3.10;;
23394;SDS011;11870;53.084;18.206;2023-03-05T05:28:32;7.30;;;2.53;;
23394;SDS011;11870;53.084;18.206;2023-03-05T05:30:59;8.52;;;2.60;;
23394;SDS011;11870;53.084;18.206;2023-03-05T05:33:30;5.70;;;2.78;;
23394;SDS011;11870;53.084;18.206;2023-03-05T05:35:56;5.35;;;2.55;;
23394;SDS011;11870;53.084;18.206;2023-03-05T05:38:22;7.88;;;3.05;;
23394;SDS011;11870;53.084;18.206;2023-03-05T05:40:48;5.53;;;2.65;;
23394;SDS011;11870;53.084;18.206;2023-03-05T05:43:13;5.35;;;2.65;;
23394;SDS011;11870;53.084;18.206;2023-03-05T05:45:39;10.57;;;3.38;;
23394;SDS011;11870;53.084;18.206;2023-03-05T05:48:05;7.07;;;3.05;;
23394;SDS011;11870;53.084;18.206;2023-03-05T05:50:31;11.63;;;2.90;;
23394;SDS011;11870;53.084;18.206;2023-03-05T05:52:57;5.20;;;2.33;;
23394;SDS011;11870;53.084;18.206;2023-03-05T05:55:23;5.40;;;2.42;;
23394;SDS011;11870;53.084;18.206;2023-03-05T05:57:49;6.38;;;2.50;;
23394;SDS011;11870;53.084;18.206;2023-03-05T06:00:15;6.65;;;2.47;;
23394;SDS011;11870;53.084;18.206;2023-03-05T06:02:41;8.40;;;2.75;;
23394;SDS011;11870;53.084;18.206;2023-03-05T06:05:10;7.65;;;3.33;;
23394;SDS011;11870;53.084;18.206;2023-03-05T06:07:37;6.70;;;2.78;;
23394;SDS011;11870;53.084;18.206;2023-03-05T06:10:03;9.77;;;3.00;;
23394;SDS011;11870;53.084;18.206;2023-03-05T06:12:29;8.85;;;2.80;;
23394;SDS011;11870;53.084;18.206;2023-03-05T06:14:55;5.93;;;2.58;;
23394;SDS011;11870;53.084;18.206;2023-03-05T06:17:21;7.22;;;3.20;;
23394;SDS011;11870;53.084;18.206;2023-03-05T06:19:47;5.38;;;2.33;;
23394;SDS011;11870;53.084;18.206;2023-03-05T06:22:13;11.23;;;2.60;;
23394;SDS011;11870;53.084;18.206;2023-03-05T06:24:39;4.32;;;2.20;;
23394;SDS011;11870;53.084;18.206;2023-03-05T06:27:05;4.43;;;2.08;;
23394;SDS011;11870;53.084;18.206;2023-03-05T06:29:31;4.65;;;1.90;;
23394;SDS011;11870;53.084;18.206;2023-03-05T06:31:57;3.83;;;1.73;;
23394;SDS011;11870;53.084;18.206;2023-03-05T06:34:23;5.03;;;1.95;;
23394;SDS011;11870;53.084;18.206;2023-03-05T06:36:49;5.55;;;1.60;;
23394;SDS011;11870;53.084;18.206;2023-03-05T06:39:15;3.83;;;1.63;;
23394;SDS011;11870;53.084;18.206;2023-03-05T06:41:40;6.22;;;1.80;;
23394;SDS011;11870;53.084;18.206;2023-03-05T06:44:06;3.50;;;1.67;;
23394;SDS011;11870;53.084;18.206;2023-03-05T06:46:33;4.57;;;1.77;;
23394;SDS011;11870;53.084;18.206;2023-03-05T06:49:02;4.00;;;1.70;;
23394;SDS011;11870;53.084;18.206;2023-03-05T06:51:32;6.43;;;1.65;;
23394;SDS011;11870;53.084;18.206;2023-03-05T06:54:10;5.20;;;1.85;;
23394;SDS011;11870;53.084;18.206;2023-03-05T06:56:38;4.18;;;2.00;;
23394;SDS011;11870;53.084;18.206;2023-03-05T06:59:06;4.93;;;1.52;;
23394;SDS011;11870;53.084;18.206;2023-03-05T07:01:32;9.77;;;1.90;;
23394;SDS011;11870;53.084;18.206;2023-03-05T07:03:59;6.40;;;2.10;;
23394;SDS011;11870;53.084;18.206;2023-03-05T07:06:27;3.55;;;1.80;;
23394;SDS011;11870;53.084;18.206;2023-03-05T07:08:56;5.70;;;2.03;;
23394;SDS011;11870;53.084;18.206;2023-03-05T07:11:23;5.13;;;2.30;;
23394;SDS011;11870;53.084;18.206;2023-03-05T07:13:49;5.97;;;2.25;;
23394;SDS011;11870;53.084;18.206;2023-03-05T07:16:17;5.70;;;2.20;;
23394;SDS011;11870;53.084;18.206;2023-03-05T07:18:45;5.60;;;2.38;;
23394;SDS011;11870;53.084;18.206;2023-03-05T07:21:14;9.38;;;2.50;;
23394;SDS011;11870;53.084;18.206;2023-03-05T07:23:42;10.00;;;2.65;;
23394;SDS011;11870;53.084;18.206;2023-03-05T07:26:09;6.15;;;2.65;;
23394;SDS011;11870;53.084;18.206;2023-03-05T07:28:35;8.48;;;2.58;;
23394;SDS011;11870;53.084;18.206;2023-03-05T07:31:05;4.85;;;2.78;;
23394;SDS011;11870;53.084;18.206;2023-03-05T07:33:33;5.50;;;2.50;;
23394;SDS011;11870;53.084;18.206;2023-03-05T07:36:01;5.60;;;2.90;;
23394;SDS011;11870;53.084;18.206;2023-03-05T07:38:29;8.00;;;3.22;;
23394;SDS011;11870;53.084;18.206;2023-03-05T07:40:56;5.20;;;2.38;;
23394;SDS011;11870;53.084;18.206;2023-03-05T07:43:26;5.15;;;2.78;;
23394;SDS011;11870;53.084;18.206;2023-03-05T07:45:51;6.55;;;3.00;;
23394;SDS011;11870;53.084;18.206;2023-03-05T07:48:17;8.27;;;3.13;;
23394;SDS011;11870;53.084;18.206;2023-03-05T07:50:46;8.75;;;3.10;;
23394;SDS011;11870;53.084;18.206;2023-03-05T07:53:13;5.82;;;2.92;;
23394;SDS011;11870;53.084;18.206;2023-03-05T07:55:43;7.50;;;2.40;;
23394;SDS011;11870;53.084;18.206;2023-03-05T07:58:10;9.35;;;2.63;;
23394;SDS011;11870;53.084;18.206;2023-03-05T08:00:36;11.00;;;2.85;;
23394;SDS011;11870;53.084;18.206;2023-03-05T08:03:03;4.50;;;2.58;;
23394;SDS011;11870;53.084;18.206;2023-03-05T08:05:29;5.78;;;2.70;;
23394;SDS011;11870;53.084;18.206;2023-03-05T08:07:55;7.68;;;2.83;;
23394;SDS011;11870;53.084;18.206;2023-03-05T08:10:20;6.10;;;2.30;;
23394;SDS011;11870;53.084;18.206;2023-03-05T08:12:46;7.95;;;2.70;;
23394;SDS011;11870;53.084;18.206;2023-03-05T08:15:12;7.25;;;3.30;;
23394;SDS011;11870;53.084;18.206;2023-03-05T08:17:38;7.60;;;3.42;;
23394;SDS011;11870;53.084;18.206;2023-03-05T08:20:04;4.35;;;2.45;;
23394;SDS011;11870;53.084;18.206;2023-03-05T08:22:35;8.55;;;2.63;;
23394;SDS011;11870;53.084;18.206;2023-03-05T08:25:02;5.25;;;2.60;;
23394;SDS011;11870;53.084;18.206;2023-03-05T08:27:29;5.75;;;2.60;;
23394;SDS011;11870;53.084;18.206;2023-03-05T08:29:56;7.18;;;3.55;;
23394;SDS011;11870;53.084;18.206;2023-03-05T08:32:22;7.15;;;3.50;;
23394;SDS011;11870;53.084;18.206;2023-03-05T08:34:49;8.65;;;3.22;;
23394;SDS011;11870;53.084;18.206;2023-03-05T08:37:14;6.43;;;3.03;;
23394;SDS011;11870;53.084;18.206;2023-03-05T08:39:40;3.50;;;2.20;;
23394;SDS011;11870;53.084;18.206;2023-03-05T08:42:06;6.72;;;2.38;;
23394;SDS011;11870;53.084;18.206;2023-03-05T08:44:32;5.82;;;3.03;;
23394;SDS011;11870;53.084;18.206;2023-03-05T08:46:58;6.47;;;2.97;;
23394;SDS011;11870;53.084;18.206;2023-03-05T08:49:24;6.75;;;3.05;;
23394;SDS011;11870;53.084;18.206;2023-03-05T08:51:50;4.57;;;2.85;;
23394;SDS011;11870;53.084;18.206;2023-03-05T08:54:16;5.63;;;2.75;;
23394;SDS011;11870;53.084;18.206;2023-03-05T08:56:42;6.88;;;3.28;;
23394;SDS011;11870;53.084;18.206;2023-03-05T08:59:08;9.23;;;3.20;;
23394;SDS011;11870;53.084;18.206;2023-03-05T09:01:34;6.30;;;2.97;;
23394;SDS011;11870;53.084;18.206;2023-03-05T09:04:00;8.60;;;3.10;;
23394;SDS011;11870;53.084;18.206;2023-03-05T09:06:28;7.72;;;3.50;;
23394;SDS011;11870;53.084;18.206;2023-03-05T09:08:54;6.57;;;3.30;;
23394;SDS011;11870;53.084;18.206;2023-03-05T09:11:20;7.00;;;3.22;;
23394;SDS011;11870;53.084;18.206;2023-03-05T09:13:46;6.88;;;3.30;;
23394;SDS011;11870;53.084;18.206;2023-03-05T09:16:13;7.88;;;3.38;;
23394;SDS011;11870;53.084;18.206;2023-03-05T09:18:41;7.72;;;3.17;;
23394;SDS011;11870;53.084;18.206;2023-03-05T09:21:09;5.57;;;2.95;;
23394;SDS011;11870;53.084;18.206;2023-03-05T09:23:37;4.68;;;2.50;;
23394;SDS011;11870;53.084;18.206;2023-03-05T09:26:04;4.45;;;2.65;;
23394;SDS011;11870;53.084;18.206;2023-03-05T09:28:31;5.43;;;2.40;;
23394;SDS011;11870;53.084;18.206;2023-03-05T09:31:00;5.28;;;2.55;;
23394;SDS011;11870;53.084;18.206;2023-03-05T09:33:30;5.88;;;2.50;;
23394;SDS011;11870;53.084;18.206;2023-03-05T09:35:57;4.68;;;2.42;;
23394;SDS011;11870;53.084;18.206;2023-03-05T09:38:23;6.18;;;2.10;;
23394;SDS011;11870;53.084;18.206;2023-03-05T09:46:13;5.82;;;2.03;;
23394;SDS011;11870;53.084;18.206;2023-03-05T09:49:06;5.13;;;2.00;;
23394;SDS011;11870;53.084;18.206;2023-03-05T09:51:40;4.15;;;2.13;;
23394;SDS011;11870;53.084;18.206;2023-03-05T09:54:24;4.88;;;2.10;;
23394;SDS011;11870;53.084;18.206;2023-03-05T09:57:10;7.10;;;2.17;;
23394;SDS011;11870;53.084;18.206;2023-03-05T10:02:47;2.67;;;1.90;;
23394;SDS011;11870;53.084;18.206;2023-03-05T10:05:28;3.45;;;1.92;;
23394;SDS011;11870;53.084;18.206;2023-03-05T10:08:07;3.10;;;1.50;;
23394;SDS011;11870;53.084;18.206;2023-03-05T10:10:42;3.22;;;1.73;;
23394;SDS011;11870;53.084;18.206;2023-03-05T10:13:19;3.97;;;1.95;;
23394;SDS011;11870;53.084;18.206;2023-03-05T10:18:34;3.80;;;1.70;;
23394;SDS011;11870;53.084;18.206;2023-03-05T10:26:34;3.40;;;1.95;;
23394;SDS011;11870;53.084;18.206;2023-03-05T10:32:17;3.53;;;2.10;;
23394;SDS011;11870;53.084;18.206;2023-03-05T10:38:16;3.70;;;1.98;;
23394;SDS011;11870;53.084;18.206;2023-03-05T10:41:09;4.60;;;2.80;;
23394;SDS011;11870;53.084;18.206;2023-03-05T10:46:17;7.72;;;3.25;;
23394;SDS011;11870;53.084;18.206;2023-03-05T10:48:48;5.65;;;3.17;;
23394;SDS011;11870;53.084;18.206;2023-03-05T10:51:26;6.05;;;3.35;;
23394;SDS011;11870;53.084;18.206;2023-03-05T10:54:01;6.78;;;3.63;;
23394;SDS011;11870;53.084;18.206;2023-03-05T10:56:36;7.65;;;3.45;;
23394;SDS011;11870;53.084;18.206;2023-03-05T10:59:02;7.47;;;3.42;;
23394;SDS011;11870;53.084;18.206;2023-03-05T11:01:28;5.93;;;3.22;;
23394;SDS011;11870;53.084;18.206;2023-03-05T11:04:01;5.70;;;3.00;;
23394;SDS011;11870;53.084;18.206;2023-03-05T11:06:33;5.38;;;3.10;;
23394;SDS011;11870;53.084;18.206;2023-03-05T11:09:21;6.13;;;2.95;;
23394;SDS011;11870;53.084;18.206;2023-03-05T11:12:02;6.45;;;2.80;;
23394;SDS011;11870;53.084;18.206;2023-03-05T11:14:29;5.72;;;2.58;;
23394;SDS011;11870;53.084;18.206;2023-03-05T11:16:58;4.50;;;2.70;;
23394;SDS011;11870;53.084;18.206;2023-03-05T11:19:26;5.57;;;3.33;;
23394;SDS011;11870;53.084;18.206;2023-03-05T11:27:50;3.33;;;2.42;;
23394;SDS011;11870;53.084;18.206;2023-03-05T11:30:30;5.20;;;2.75;;
23394;SDS011;11870;53.084;18.206;2023-03-05T11:33:08;6.95;;;3.03;;
23394;SDS011;11870;53.084;18.206;2023-03-05T11:35:38;4.95;;;2.75;;
23394;SDS011;11870;53.084;18.206;2023-03-05T11:38:19;6.13;;;2.70;;
23394;SDS011;11870;53.084;18.206;2023-03-05T11:40:54;6.88;;;3.33;;
23394;SDS011;11870;53.084;18.206;2023-03-05T11:43:22;8.27;;;3.25;;
23394;SDS011;11870;53.084;18.206;2023-03-05T11:45:50;3.97;;;2.35;;
23394;SDS011;11870;53.084;18.206;2023-03-05T11:48:19;5.28;;;2.10;;
23394;SDS011;11870;53.084;18.206;2023-03-05T11:50:55;5.20;;;2.30;;
23394;SDS011;11870;53.084;18.206;2023-03-05T11:53:27;4.50;;;2.08;;
23394;SDS011;11870;53.084;18.206;2023-03-05T11:56:03;4.10;;;2.15;;
23394;SDS011;11870;53.084;18.206;2023-03-05T12:01:41;4.47;;;1.98;;
23394;SDS011;11870;53.084;18.206;2023-03-05T12:04:10;3.03;;;1.88;;
23394;SDS011;11870;53.084;18.206;2023-03-05T12:09:11;3.95;;;1.80;;
23394;SDS011;11870;53.084;18.206;2023-03-05T12:12:07;3.17;;;1.70;;
23394;SDS011;11870;53.084;18.206;2023-03-05T12:15:46;4.28;;;1.80;;
23394;SDS011;11870;53.084;18.206;2023-03-05T12:18:06;4.22;;;1.58;;
23394;SDS011;11870;53.084;18.206;2023-03-05T12:23:24;4.80;;;1.80;;
23394;SDS011;11870;53.084;18.206;2023-03-05T12:25:53;2.85;;;1.70;;
23394;SDS011;11870;53.084;18.206;2023-03-05T12:31:00;3.47;;;1.67;;
23394;SDS011;11870;53.084;18.206;2023-03-05T12:33:33;4.60;;;1.65;;
23394;SDS011;11870;53.084;18.206;2023-03-05T12:38:49;5.05;;;2.22;;
23394;SDS011;11870;53.084;18.206;2023-03-05T12:51:42;4.15;;;2.00;;
23394;SDS011;11870;53.084;18.206;2023-03-05T12:54:55;4.53;;;2.35;;
23394;SDS011;11870;53.084;18.206;2023-03-05T12:57:04;3.78;;;2.38;;
23394;SDS011;11870;53.084;18.206;2023-03-05T12:59:43;4.53;;;2.53;;
23394;SDS011;11870;53.084;18.206;2023-03-05T13:02:36;7.53;;;3.17;;
23394;SDS011;11870;53.084;18.206;2023-03-05T13:05:19;6.00;;;2.90;;
23394;SDS011;11870;53.084;18.206;2023-03-05T13:07:46;8.05;;;3.97;;
23394;SDS011;11870;53.084;18.206;2023-03-05T13:10:48;10.02;;;3.63;;
23394;SDS011;11870;53.084;18.206;2023-03-05T13:13:10;7.53;;;3.20;;
23394;SDS011;11870;53.084;18.206;2023-03-05T13:15:38;5.35;;;2.92;;
23394;SDS011;11870;53.084;18.206;2023-03-05T13:18:11;7.72;;;3.72;;
23394;SDS011;11870;53.084;18.206;2023-03-05T13:20:44;8.73;;;3.47;;
23394;SDS011;11870;53.084;18.206;2023-03-05T13:28:21;7.75;;;3.53;;
23394;SDS011;11870;53.084;18.206;2023-03-05T13:30:51;7.13;;;3.33;;
23394;SDS011;11870;53.084;18.206;2023-03-05T13:33:22;10.05;;;3.22;;
23394;SDS011;11870;53.084;18.206;2023-03-05T13:35:53;8.57;;;3.80;;
23394;SDS011;11870;53.084;18.206;2023-03-05T13:38:24;7.88;;;4.00;;
23394;SDS011;11870;53.084;18.206;2023-03-05T13:41:17;9.60;;;3.95;;
23394;SDS011;11870;53.084;18.206;2023-03-05T13:44:01;8.43;;;3.10;;
23394;SDS011;11870;53.084;18.206;2023-03-05T13:46:35;7.32;;;3.47;;
23394;SDS011;11870;53.084;18.206;2023-03-05T13:49:24;7.72;;;2.95;;
23394;SDS011;11870;53.084;18.206;2023-03-05T13:51:52;6.63;;;3.38;;
23394;SDS011;11870;53.084;18.206;2023-03-05T13:54:20;11.98;;;3.47;;
23394;SDS011;11870;53.084;18.206;2023-03-05T13:59:19;8.63;;;3.58;;
23394;SDS011;11870;53.084;18.206;2023-03-05T14:01:48;8.65;;;4.13;;
23394;SDS011;11870;53.084;18.206;2023-03-05T14:04:17;7.78;;;3.90;;
23394;SDS011;11870;53.084;18.206;2023-03-05T14:12:04;7.18;;;3.95;;
23394;SDS011;11870;53.084;18.206;2023-03-05T14:14:46;7.85;;;3.30;;
23394;SDS011;11870;53.084;18.206;2023-03-05T14:22:39;7.10;;;3.80;;
23394;SDS011;11870;53.084;18.206;2023-03-05T14:27:54;9.38;;;4.25;;
23394;SDS011;11870;53.084;18.206;2023-03-05T14:30:22;8.55;;;4.63;;
23394;SDS011;11870;53.084;18.206;2023-03-05T14:32:49;7.80;;;4.13;;
23394;SDS011;11870;53.084;18.206;2023-03-05T14:35:19;9.18;;;4.45;;
23394;SDS011;11870;53.084;18.206;2023-03-05T14:37:48;2.67;;;1.20;;
23394;SDS011;11870;53.084;18.206;2023-03-05T14:40:19;1.60;;;0.90;;
23394;SDS011;11870;53.084;18.206;2023-03-05T14:42:52;1.40;;;0.70;;
23394;SDS011;11870;53.084;18.206;2023-03-05T14:45:24;2.88;;;1.48;;
23394;SDS011;11870;53.084;18.206;2023-03-05T14:47:51;4.22;;;1.27;;
23394;SDS011;11870;53.084;18.206;2023-03-05T14:50:20;1.83;;;0.70;;
23394;SDS011;11870;53.084;18.206;2023-03-05T14:53:01;2.03;;;1.00;;
23394;SDS011;11870;53.084;18.206;2023-03-05T14:55:32;1.38;;;0.70;;
23394;SDS011;11870;53.084;18.206;2023-03-05T14:58:00;1.40;;;1.00;;
23394;SDS011;11870;53.084;18.206;2023-03-05T15:00:31;4.18;;;1.05;;
23394;SDS011;11870;53.084;18.206;2023-03-05T15:02:57;0.90;;;0.73;;
23394;SDS011;11870;53.084;18.206;2023-03-05T15:05:23;1.10;;;0.68;;
23394;SDS011;11870;53.084;18.206;2023-03-05T15:07:49;0.93;;;0.70;;
23394;SDS011;11870;53.084;18.206;2023-03-05T15:10:17;8.52;;;4.03;;
23394;SDS011;11870;53.084;18.206;2023-03-05T15:12:44;12.82;;;7.35;;
23394;SDS011;11870;53.084;18.206;2023-03-05T15:15:14;7.45;;;4.55;;
23394;SDS011;11870;53.084;18.206;2023-03-05T15:17:41;5.03;;;1.55;;
23394;SDS011;11870;53.084;18.206;2023-03-05T15:20:10;2.95;;;1.10;;
23394;SDS011;11870;53.084;18.206;2023-03-05T15:22:39;2.88;;;1.10;;
23394;SDS011;11870;53.084;18.206;2023-03-05T15:25:05;1.52;;;1.10;;
23394;SDS011;11870;53.084;18.206;2023-03-05T15:27:31;1.92;;;1.15;;
23394;SDS011;11870;53.084;18.206;2023-03-05T15:29:57;2.45;;;1.27;;
23394;SDS011;11870;53.084;18.206;2023-03-05T15:32:27;1.48;;;1.00;;
23394;SDS011;11870;53.084;18.206;2023-03-05T15:34:55;1.42;;;1.15;;
23394;SDS011;11870;53.084;18.206;2023-03-05T15:37:21;1.85;;;1.20;;
23394;SDS011;11870;53.084;18.206;2023-03-05T15:39:47;1.75;;;1.20;;
23394;SDS011;11870;53.084;18.206;2023-03-05T15:42:13;3.28;;;1.30;;
23394;SDS011;11870;53.084;18.206;2023-03-05T15:44:39;2.10;;;1.10;;
23394;SDS011;11870;53.084;18.206;2023-03-05T15:47:06;3.20;;;1.77;;
23394;SDS011;11870;53.084;18.206;2023-03-05T15:49:32;3.45;;;1.60;;
23394;SDS011;11870;53.084;18.206;2023-03-05T15:51:58;2.50;;;1.50;;
23394;SDS011;11870;53.084;18.206;2023-03-05T15:54:24;2.63;;;1.50;;
23394;SDS011;11870;53.084;18.206;2023-03-05T15:56:51;5.05;;;1.75;;
23394;SDS011;11870;53.084;18.206;2023-03-05T15:59:18;2.30;;;1.70;;
23394;SDS011;11870;53.084;18.206;2023-03-05T16:01:46;4.30;;;1.85;;
23394;SDS011;11870;53.084;18.206;2023-03-05T16:04:15;4.88;;;1.92;;